Arrowsmith, Illinois
Current Conditions -  °F | °C
As of 8:56 PM on Friday 28 Nov 2014 (Local Time) from KBMI Reporting Station
Clear Clear  
Wind Chill: 24°   Ceiling: Unl
Heat Index: 35°   Visibility: 10mi
Dew Point: 32°   Wind: 18mph
Humidity: 89%   Direction: 180°S
Pressure: 29.9"   Gusts: NA
Location:  40.45°N, 88.63°W
Report Text: KBMI 290256Z 18016KT 10SM CLR 02/00 A2990 RMK AO2 56021 T00160000 SLP143
Loading
Personal Weather Stations






























Interactive Weather Map New forecast layout! Learn more

10-Day Weather Forecast

Advertisements
Track Severe Weather on mobile